sensor_id;sensor_type;location;lat;lon;timestamp;pressure;altitude;pressure_sealevel;temperature;humidity
44481;BME280;30184;42.018;23.670;2024-01-16T00:01:48;90298.47;;;1.02;100.00
44481;BME280;30184;42.018;23.670;2024-01-16T00:04:17;90274.00;;;1.03;100.00
44481;BME280;30184;42.018;23.670;2024-01-16T00:06:46;90272.06;;;1.07;100.00
44481;BME280;30184;42.018;23.670;2024-01-16T00:09:16;90297.59;;;1.08;100.00
44481;BME280;30184;42.018;23.670;2024-01-16T00:11:46;90272.09;;;1.04;100.00
44481;BME280;30184;42.018;23.670;2024-01-16T00:14:16;90269.81;;;1.02;100.00
44481;BME280;30184;42.018;23.670;2024-01-16T00:16:46;90116.94;;;-0.20;100.00
44481;BME280;30184;42.018;23.670;2024-01-16T00:19:15;90328.31;;;0.93;100.00
44481;BME280;30184;42.018;23.670;2024-01-16T00:21:44;90268.50;;;0.87;100.00
44481;BME280;30184;42.018;23.670;2024-01-16T00:24:15;90301.97;;;0.95;100.00
44481;BME280;30184;42.018;23.670;2024-01-16T00:26:44;90285.94;;;0.95;100.00
44481;BME280;30184;42.018;23.670;2024-01-16T00:29:15;90076.13;;;-0.47;100.00
44481;BME280;30184;42.018;23.670;2024-01-16T00:31:44;90289.50;;;0.85;100.00
44481;BME280;30184;42.018;23.670;2024-01-16T00:34:14;90299.69;;;0.94;100.00
44481;BME280;30184;42.018;23.670;2024-01-16T00:36:43;90273.41;;;0.92;100.00
44481;BME280;30184;42.018;23.670;2024-01-16T00:39:12;90212.06;;;0.24;100.00
44481;BME280;30184;42.018;23.670;2024-01-16T00:41:42;90260.53;;;0.84;100.00
44481;BME280;30184;42.018;23.670;2024-01-16T00:44:11;90234.88;;;0.63;100.00
44481;BME280;30184;42.018;23.670;2024-01-16T00:46:42;90182.00;;;0.51;100.00
44481;BME280;30184;42.018;23.670;2024-01-16T00:49:11;90239.66;;;0.75;100.00
44481;BME280;30184;42.018;23.670;2024-01-16T00:51:40;90170.91;;;0.25;100.00
44481;BME280;30184;42.018;23.670;2024-01-16T00:54:10;90228.97;;;0.75;100.00
44481;BME280;30184;42.018;23.670;2024-01-16T00:56:41;90245.56;;;0.59;100.00
44481;BME280;30184;42.018;23.670;2024-01-16T00:59:11;90168.81;;;0.06;100.00
44481;BME280;30184;42.018;23.670;2024-01-16T01:01:41;90215.97;;;0.16;100.00
44481;BME280;30184;42.018;23.670;2024-01-16T01:04:10;90265.22;;;0.42;100.00
44481;BME280;30184;42.018;23.670;2024-01-16T01:06:40;90245.88;;;0.34;100.00
44481;BME280;30184;42.018;23.670;2024-01-16T01:09:09;90235.09;;;0.42;100.00
44481;BME280;30184;42.018;23.670;2024-01-16T01:11:39;90148.06;;;-0.10;100.00
44481;BME280;30184;42.018;23.670;2024-01-16T01:14:11;90241.34;;;0.62;100.00
44481;BME280;30184;42.018;23.670;2024-01-16T01:16:42;90239.97;;;0.50;100.00
44481;BME280;30184;42.018;23.670;2024-01-16T01:19:11;90233.44;;;0.55;100.00
44481;BME280;30184;42.018;23.670;2024-01-16T01:21:40;90233.78;;;0.57;100.00
44481;BME280;30184;42.018;23.670;2024-01-16T01:24:09;90167.34;;;0.35;100.00
44481;BME280;30184;42.018;23.670;2024-01-16T01:26:38;90248.03;;;0.77;100.00
44481;BME280;30184;42.018;23.670;2024-01-16T01:29:07;90234.28;;;0.79;100.00
44481;BME280;30184;42.018;23.670;2024-01-16T01:31:37;90159.66;;;0.37;100.00
44481;BME280;30184;42.018;23.670;2024-01-16T01:34:07;90153.63;;;0.33;100.00
44481;BME280;30184;42.018;23.670;2024-01-16T01:36:36;90110.97;;;-0.31;100.00
44481;BME280;30184;42.018;23.670;2024-01-16T01:39:06;90212.88;;;0.82;100.00
44481;BME280;30184;42.018;23.670;2024-01-16T01:41:35;90229.47;;;0.66;100.00
44481;BME280;30184;42.018;23.670;2024-01-16T01:44:05;90216.25;;;0.86;100.00
44481;BME280;30184;42.018;23.670;2024-01-16T01:46:35;90094.41;;;-0.15;100.00
44481;BME280;30184;42.018;23.670;2024-01-16T01:49:05;90168.41;;;0.42;100.00
44481;BME280;30184;42.018;23.670;2024-01-16T01:51:35;90202.38;;;0.68;100.00
44481;BME280;30184;42.018;23.670;2024-01-16T01:54:05;90229.97;;;0.88;100.00
44481;BME280;30184;42.018;23.670;2024-01-16T01:56:34;90223.81;;;0.91;100.00
44481;BME280;30184;42.018;23.670;2024-01-16T01:59:04;90241.44;;;0.85;100.00
44481;BME280;30184;42.018;23.670;2024-01-16T02:01:34;90183.44;;;0.59;100.00
44481;BME280;30184;42.018;23.670;2024-01-16T02:04:04;90191.00;;;0.64;100.00
44481;BME280;30184;42.018;23.670;2024-01-16T02:06:36;90155.66;;;0.26;100.00
44481;BME280;30184;42.018;23.670;2024-01-16T02:09:05;90227.78;;;0.80;100.00
44481;BME280;30184;42.018;23.670;2024-01-16T02:11:35;90212.16;;;0.78;100.00
44481;BME280;30184;42.018;23.670;2024-01-16T02:14:05;90246.00;;;0.85;100.00
44481;BME280;30184;42.018;23.670;2024-01-16T02:16:36;90183.22;;;0.46;100.00
44481;BME280;30184;42.018;23.670;2024-01-16T02:19:06;90208.34;;;0.79;100.00
44481;BME280;30184;42.018;23.670;2024-01-16T02:21:39;90252.38;;;0.94;100.00
44481;BME280;30184;42.018;23.670;2024-01-16T02:24:11;90167.81;;;0.57;100.00
44481;BME280;30184;42.018;23.670;2024-01-16T02:26:41;90248.06;;;1.04;100.00
44481;BME280;30184;42.018;23.670;2024-01-16T02:29:10;90160.53;;;0.61;100.00
44481;BME280;30184;42.018;23.670;2024-01-16T02:31:40;90223.00;;;0.94;100.00
44481;BME280;30184;42.018;23.670;2024-01-16T02:34:09;90222.75;;;0.85;100.00
44481;BME280;30184;42.018;23.670;2024-01-16T02:36:38;89960.44;;;-0.80;100.00
44481;BME280;30184;42.018;23.670;2024-01-16T02:39:08;90246.84;;;1.08;100.00
44481;BME280;30184;42.018;23.670;2024-01-16T02:41:38;90224.66;;;1.11;100.00
44481;BME280;30184;42.018;23.670;2024-01-16T02:44:08;90210.25;;;1.05;100.00
44481;BME280;30184;42.018;23.670;2024-01-16T02:46:37;90141.09;;;0.61;100.00
44481;BME280;30184;42.018;23.670;2024-01-16T02:49:07;90080.63;;;0.20;100.00
44481;BME280;30184;42.018;23.670;2024-01-16T02:51:36;90219.94;;;0.96;100.00
44481;BME280;30184;42.018;23.670;2024-01-16T02:54:06;90230.00;;;1.11;100.00
44481;BME280;30184;42.018;23.670;2024-01-16T02:56:35;90261.16;;;1.22;100.00
44481;BME280;30184;42.018;23.670;2024-01-16T02:59:06;90181.34;;;1.00;100.00
44481;BME280;30184;42.018;23.670;2024-01-16T03:01:35;90180.84;;;0.82;100.00
44481;BME280;30184;42.018;23.670;2024-01-16T03:04:04;90243.19;;;1.26;100.00
44481;BME280;30184;42.018;23.670;2024-01-16T03:06:33;90217.72;;;1.18;100.00
44481;BME280;30184;42.018;23.670;2024-01-16T03:09:02;90226.34;;;1.29;100.00
44481;BME280;30184;42.018;23.670;2024-01-16T03:11:32;90236.06;;;1.16;100.00
44481;BME280;30184;42.018;23.670;2024-01-16T03:14:01;90219.06;;;0.75;100.00
44481;BME280;30184;42.018;23.670;2024-01-16T03:16:32;90255.75;;;1.29;100.00
44481;BME280;30184;42.018;23.670;2024-01-16T03:19:01;90217.38;;;1.16;100.00
44481;BME280;30184;42.018;23.670;2024-01-16T03:21:31;90260.66;;;1.30;100.00
44481;BME280;30184;42.018;23.670;2024-01-16T03:24:00;90244.88;;;1.12;100.00
44481;BME280;30184;42.018;23.670;2024-01-16T03:26:29;90152.06;;;0.66;100.00
44481;BME280;30184;42.018;23.670;2024-01-16T03:28:58;90181.25;;;0.81;100.00
44481;BME280;30184;42.018;23.670;2024-01-16T03:31:28;90201.34;;;0.89;100.00
44481;BME280;30184;42.018;23.670;2024-01-16T03:33:58;90186.84;;;0.90;100.00
44481;BME280;30184;42.018;23.670;2024-01-16T03:36:28;90272.47;;;1.33;100.00
44481;BME280;30184;42.018;23.670;2024-01-16T03:38:57;90260.22;;;1.35;100.00
44481;BME280;30184;42.018;23.670;2024-01-16T03:41:26;90284.63;;;1.37;100.00
44481;BME280;30184;42.018;23.670;2024-01-16T03:43:55;90262.84;;;1.39;100.00
44481;BME280;30184;42.018;23.670;2024-01-16T03:46:25;90253.91;;;1.22;100.00
44481;BME280;30184;42.018;23.670;2024-01-16T03:48:55;90283.88;;;1.37;100.00
44481;BME280;30184;42.018;23.670;2024-01-16T03:51:26;90270.16;;;1.35;100.00
44481;BME280;30184;42.018;23.670;2024-01-16T03:53:55;90208.13;;;0.93;100.00
44481;BME280;30184;42.018;23.670;2024-01-16T03:56:24;90275.69;;;1.21;100.00
44481;BME280;30184;42.018;23.670;2024-01-16T03:58:53;90222.25;;;0.94;100.00
44481;BME280;30184;42.018;23.670;2024-01-16T04:01:30;90278.13;;;1.38;100.00
44481;BME280;30184;42.018;23.670;2024-01-16T04:03:59;90284.22;;;1.39;100.00
44481;BME280;30184;42.018;23.670;2024-01-16T04:06:30;90288.38;;;1.40;100.00
44481;BME280;30184;42.018;23.670;2024-01-16T04:09:00;90216.47;;;0.99;100.00
44481;BME280;30184;42.018;23.670;2024-01-16T04:11:30;90280.53;;;1.29;100.00
44481;BME280;30184;42.018;23.670;2024-01-16T04:13:59;90300.59;;;1.41;100.00
44481;BME280;30184;42.018;23.670;2024-01-16T04:16:28;90249.28;;;0.99;100.00
44481;BME280;30184;42.018;23.670;2024-01-16T04:18:58;90290.38;;;1.36;100.00
44481;BME280;30184;42.018;23.670;2024-01-16T04:21:27;90333.03;;;1.43;100.00
44481;BME280;30184;42.018;23.670;2024-01-16T04:23:57;90341.06;;;1.43;100.00
44481;BME280;30184;42.018;23.670;2024-01-16T04:26:27;90341.81;;;1.43;100.00
44481;BME280;30184;42.018;23.670;2024-01-16T04:28:56;90206.16;;;0.70;100.00
44481;BME280;30184;42.018;23.670;2024-01-16T04:31:26;90330.69;;;0.84;100.00
44481;BME280;30184;42.018;23.670;2024-01-16T04:33:55;90271.66;;;1.09;100.00
44481;BME280;30184;42.018;23.670;2024-01-16T04:36:24;90256.56;;;0.95;100.00
44481;BME280;30184;42.018;23.670;2024-01-16T04:38:53;90341.09;;;1.39;100.00
44481;BME280;30184;42.018;23.670;2024-01-16T04:41:25;90254.25;;;0.97;100.00
44481;BME280;30184;42.018;23.670;2024-01-16T04:43:54;90353.56;;;1.49;100.00
44481;BME280;30184;42.018;23.670;2024-01-16T04:46:23;90358.63;;;1.40;100.00
44481;BME280;30184;42.018;23.670;2024-01-16T04:48:52;90218.56;;;0.54;100.00
44481;BME280;30184;42.018;23.670;2024-01-16T04:51:22;90351.63;;;1.50;100.00
44481;BME280;30184;42.018;23.670;2024-01-16T04:53:52;90293.78;;;1.09;100.00
44481;BME280;30184;42.018;23.670;2024-01-16T04:56:21;90354.81;;;1.41;100.00
44481;BME280;30184;42.018;23.670;2024-01-16T04:58:52;90367.63;;;1.54;100.00
44481;BME280;30184;42.018;23.670;2024-01-16T05:01:21;90366.13;;;1.53;100.00
44481;BME280;30184;42.018;23.670;2024-01-16T05:03:50;90361.53;;;1.53;100.00
44481;BME280;30184;42.018;23.670;2024-01-16T05:06:19;90326.28;;;0.70;100.00
44481;BME280;30184;42.018;23.670;2024-01-16T05:08:49;90365.41;;;1.48;100.00
44481;BME280;30184;42.018;23.670;2024-01-16T05:11:18;90389.00;;;1.57;100.00
44481;BME280;30184;42.018;23.670;2024-01-16T05:13:47;90379.03;;;1.58;100.00
44481;BME280;30184;42.018;23.670;2024-01-16T05:16:18;90321.53;;;1.19;100.00
44481;BME280;30184;42.018;23.670;2024-01-16T05:18:48;90373.78;;;1.50;100.00
44481;BME280;30184;42.018;23.670;2024-01-16T05:21:17;90347.47;;;1.19;100.00
44481;BME280;30184;42.018;23.670;2024-01-16T05:23:46;90419.56;;;1.56;100.00
44481;BME280;30184;42.018;23.670;2024-01-16T05:26:16;90332.25;;;1.16;100.00
44481;BME280;30184;42.018;23.670;2024-01-16T05:28:45;90390.00;;;1.36;100.00
44481;BME280;30184;42.018;23.670;2024-01-16T05:31:14;90396.59;;;1.59;100.00
44481;BME280;30184;42.018;23.670;2024-01-16T05:33:46;90386.66;;;1.59;100.00
44481;BME280;30184;42.018;23.670;2024-01-16T05:36:19;90359.53;;;1.30;100.00
44481;BME280;30184;42.018;23.670;2024-01-16T05:38:48;90343.03;;;1.08;100.00
44481;BME280;30184;42.018;23.670;2024-01-16T05:41:18;90374.06;;;1.29;100.00
44481;BME280;30184;42.018;23.670;2024-01-16T05:43:47;90421.00;;;1.61;100.00
44481;BME280;30184;42.018;23.670;2024-01-16T05:46:17;90399.97;;;1.63;100.00
44481;BME280;30184;42.018;23.670;2024-01-16T05:48:48;90343.19;;;1.25;100.00
44481;BME280;30184;42.018;23.670;2024-01-16T05:51:17;90340.66;;;1.14;100.00
44481;BME280;30184;42.018;23.670;2024-01-16T05:53:47;90392.19;;;1.45;100.00
44481;BME280;30184;42.018;23.670;2024-01-16T05:56:16;90415.38;;;1.55;100.00
44481;BME280;30184;42.018;23.670;2024-01-16T05:58:45;90433.63;;;1.60;100.00
44481;BME280;30184;42.018;23.670;2024-01-16T06:01:14;90437.50;;;1.56;100.00
44481;BME280;30184;42.018;23.670;2024-01-16T06:03:48;90429.16;;;1.50;100.00
44481;BME280;30184;42.018;23.670;2024-01-16T06:06:17;90443.88;;;1.65;100.00
44481;BME280;30184;42.018;23.670;2024-01-16T06:08:51;90465.22;;;1.69;100.00
44481;BME280;30184;42.018;23.670;2024-01-16T06:11:29;90462.25;;;1.63;100.00
44481;BME280;30184;42.018;23.670;2024-01-16T06:14:01;90452.16;;;1.74;100.00
44481;BME280;30184;42.018;23.670;2024-01-16T06:16:33;90485.34;;;1.77;100.00
44481;BME280;30184;42.018;23.670;2024-01-16T06:19:04;90458.28;;;1.41;100.00
44481;BME280;30184;42.018;23.670;2024-01-16T06:21:35;90477.66;;;1.82;100.00
44481;BME280;30184;42.018;23.670;2024-01-16T06:24:05;90407.91;;;1.39;100.00
44481;BME280;30184;42.018;23.670;2024-01-16T06:26:35;90305.13;;;0.53;100.00
44481;BME280;30184;42.018;23.670;2024-01-16T06:29:04;90385.00;;;1.08;100.00
44481;BME280;30184;42.018;23.670;2024-01-16T06:31:34;90520.38;;;1.90;100.00
44481;BME280;30184;42.018;23.670;2024-01-16T06:34:06;90432.38;;;1.68;100.00
44481;BME280;30184;42.018;23.670;2024-01-16T06:36:36;90503.47;;;2.23;100.00
44481;BME280;30184;42.018;23.670;2024-01-16T06:39:06;90498.84;;;2.27;100.00
44481;BME280;30184;42.018;23.670;2024-01-16T06:41:35;90501.63;;;2.47;100.00
44481;BME280;30184;42.018;23.670;2024-01-16T06:44:05;90551.19;;;2.58;100.00
44481;BME280;30184;42.018;23.670;2024-01-16T06:46:35;90507.53;;;2.61;100.00
44481;BME280;30184;42.018;23.670;2024-01-16T06:49:07;90347.91;;;1.44;100.00
44481;BME280;30184;42.018;23.670;2024-01-16T06:51:36;90514.25;;;2.73;100.00
44481;BME280;30184;42.018;23.670;2024-01-16T06:54:05;90505.81;;;2.75;100.00
44481;BME280;30184;42.018;23.670;2024-01-16T06:56:35;90537.72;;;2.89;100.00
44481;BME280;30184;42.018;23.670;2024-01-16T06:59:04;90389.63;;;2.18;100.00
44481;BME280;30184;42.018;23.670;2024-01-16T07:01:35;90492.81;;;2.73;100.00
44481;BME280;30184;42.018;23.670;2024-01-16T07:04:07;90520.44;;;3.17;100.00
44481;BME280;30184;42.018;23.670;2024-01-16T07:06:36;90537.19;;;3.24;100.00
44481;BME280;30184;42.018;23.670;2024-01-16T07:09:06;90518.06;;;3.22;100.00
44481;BME280;30184;42.018;23.670;2024-01-16T07:11:38;90527.59;;;3.00;100.00
44481;BME280;30184;42.018;23.670;2024-01-16T07:14:10;90496.59;;;2.99;100.00
44481;BME280;30184;42.018;23.670;2024-01-16T07:16:39;90558.25;;;3.46;100.00
44481;BME280;30184;42.018;23.670;2024-01-16T07:19:10;90541.16;;;3.59;100.00
44481;BME280;30184;42.018;23.670;2024-01-16T07:21:40;90508.91;;;3.20;99.60
44481;BME280;30184;42.018;23.670;2024-01-16T07:24:10;90521.81;;;3.48;99.47
44481;BME280;30184;42.018;23.670;2024-01-16T07:26:40;90568.56;;;3.70;98.89
44481;BME280;30184;42.018;23.670;2024-01-16T07:29:09;90569.50;;;3.60;98.48
44481;BME280;30184;42.018;23.670;2024-01-16T07:31:38;90588.69;;;3.59;98.43
44481;BME280;30184;42.018;23.670;2024-01-16T07:34:07;90566.88;;;3.57;98.52
44481;BME280;30184;42.018;23.670;2024-01-16T07:36:38;90574.97;;;3.53;98.17
44481;BME280;30184;42.018;23.670;2024-01-16T07:39:08;90469.66;;;2.36;98.01
44481;BME280;30184;42.018;23.670;2024-01-16T07:41:38;90498.81;;;2.81;98.27
44481;BME280;30184;42.018;23.670;2024-01-16T07:44:07;90637.31;;;3.61;98.47
44481;BME280;30184;42.018;23.670;2024-01-16T07:46:35;90585.50;;;3.64;98.73
44481;BME280;30184;42.018;23.670;2024-01-16T07:49:05;90618.78;;;3.90;98.34
44481;BME280;30184;42.018;23.670;2024-01-16T07:51:35;90616.25;;;4.02;98.08
44481;BME280;30184;42.018;23.670;2024-01-16T07:54:06;90500.31;;;3.52;97.27
44481;BME280;30184;42.018;23.670;2024-01-16T07:56:36;90638.59;;;4.39;96.80
44481;BME280;30184;42.018;23.670;2024-01-16T07:59:06;90638.44;;;4.46;95.65
44481;BME280;30184;42.018;23.670;2024-01-16T08:01:35;90637.03;;;4.41;94.90
44481;BME280;30184;42.018;23.670;2024-01-16T08:04:05;90652.72;;;4.43;94.34
44481;BME280;30184;42.018;23.670;2024-01-16T08:06:35;90482.69;;;3.51;93.89
44481;BME280;30184;42.018;23.670;2024-01-16T08:09:06;90623.66;;;4.58;93.40
44481;BME280;30184;42.018;23.670;2024-01-16T08:11:36;90654.91;;;4.87;93.15
44481;BME280;30184;42.018;23.670;2024-01-16T08:14:08;90624.75;;;4.96;92.96
44481;BME280;30184;42.018;23.670;2024-01-16T08:16:38;90561.63;;;4.68;92.88
44481;BME280;30184;42.018;23.670;2024-01-16T08:19:08;90556.44;;;4.77;92.46
44481;BME280;30184;42.018;23.670;2024-01-16T08:21:37;90492.38;;;4.24;92.02
44481;BME280;30184;42.018;23.670;2024-01-16T08:24:11;90626.94;;;5.70;92.07
44481;BME280;30184;42.018;23.670;2024-01-16T08:26:41;90655.75;;;5.85;89.65
44481;BME280;30184;42.018;23.670;2024-01-16T08:29:11;90520.00;;;4.93;89.48
44481;BME280;30184;42.018;23.670;2024-01-16T08:31:40;90589.50;;;5.91;87.94
44481;BME280;30184;42.018;23.670;2024-01-16T08:34:09;90657.94;;;6.52;87.13
44481;BME280;30184;42.018;23.670;2024-01-16T08:36:41;90496.34;;;5.49;86.04
44481;BME280;30184;42.018;23.670;2024-01-16T08:39:12;90579.31;;;5.99;85.37
44481;BME280;30184;42.018;23.670;2024-01-16T08:41:43;90663.69;;;6.54;84.24
44481;BME280;30184;42.018;23.670;2024-01-16T08:44:15;90662.56;;;6.39;84.12
44481;BME280;30184;42.018;23.670;2024-01-16T08:46:46;90628.59;;;5.31;84.55
44481;BME280;30184;42.018;23.670;2024-01-16T08:49:15;90602.88;;;5.62;85.40
44481;BME280;30184;42.018;23.670;2024-01-16T08:51:53;90635.41;;;5.84;85.70
44481;BME280;30184;42.018;23.670;2024-01-16T08:54:23;90661.91;;;5.86;86.91
44481;BME280;30184;42.018;23.670;2024-01-16T08:56:53;90613.22;;;5.32;88.34
44481;BME280;30184;42.018;23.670;2024-01-16T08:59:23;90678.22;;;5.79;89.28
44481;BME280;30184;42.018;23.670;2024-01-16T09:01:52;90722.75;;;5.83;89.30
44481;BME280;30184;42.018;23.670;2024-01-16T09:04:22;90599.75;;;4.99;89.68
44481;BME280;30184;42.018;23.670;2024-01-16T09:06:51;90707.66;;;5.86;89.85
44481;BME280;30184;42.018;23.670;2024-01-16T09:09:22;90671.50;;;5.87;89.81
44481;BME280;30184;42.018;23.670;2024-01-16T09:11:52;90526.00;;;4.28;90.03
44481;BME280;30184;42.018;23.670;2024-01-16T09:14:23;90655.69;;;5.73;90.61
44481;BME280;30184;42.018;23.670;2024-01-16T09:16:52;90675.66;;;5.91;90.50
44481;BME280;30184;42.018;23.670;2024-01-16T09:19:22;90678.44;;;5.88;90.41
44481;BME280;30184;42.018;23.670;2024-01-16T09:21:51;90674.78;;;5.78;90.69
44481;BME280;30184;42.018;23.670;2024-01-16T09:24:22;90679.91;;;5.73;91.17
44481;BME280;30184;42.018;23.670;2024-01-16T09:26:52;90684.19;;;5.54;91.56
44481;BME280;30184;42.018;23.670;2024-01-16T09:29:21;90559.66;;;4.53;91.63
44481;BME280;30184;42.018;23.670;2024-01-16T09:31:52;90706.66;;;5.63;93.06
44481;BME280;30184;42.018;23.670;2024-01-16T09:34:25;90687.31;;;5.69;92.67
44481;BME280;30184;42.018;23.670;2024-01-16T09:37:04;90602.47;;;4.79;92.44
44481;BME280;30184;42.018;23.670;2024-01-16T09:39:35;90638.94;;;5.49;92.29
44481;BME280;30184;42.018;23.670;2024-01-16T09:42:06;90685.72;;;6.04;92.23
44481;BME280;30184;42.018;23.670;2024-01-16T09:44:36;90694.50;;;6.08;91.71
44481;BME280;30184;42.018;23.670;2024-01-16T09:47:06;90516.53;;;4.76;91.22
44481;BME280;30184;42.018;23.670;2024-01-16T09:49:38;90696.00;;;6.09;91.23
44481;BME280;30184;42.018;23.670;2024-01-16T09:52:08;90684.91;;;5.90;91.11
44481;BME280;30184;42.018;23.670;2024-01-16T09:54:39;90498.88;;;4.42;90.90
44481;BME280;30184;42.018;23.670;2024-01-16T09:57:13;90472.53;;;4.70;91.00
44481;BME280;30184;42.018;23.670;2024-01-16T09:59:44;90415.03;;;4.51;90.56
44481;BME280;30184;42.018;23.670;2024-01-16T10:02:14;90657.06;;;5.97;91.00
44481;BME280;30184;42.018;23.670;2024-01-16T10:04:44;90730.81;;;6.48;91.56
44481;BME280;30184;42.018;23.670;2024-01-16T10:07:14;90452.88;;;4.73;91.83
44481;BME280;30184;42.018;23.670;2024-01-16T10:09:46;90698.47;;;6.48;92.00
44481;BME280;30184;42.018;23.670;2024-01-16T10:12:15;90558.34;;;5.45;91.65
44481;BME280;30184;42.018;23.670;2024-01-16T10:14:45;90723.75;;;6.83;91.73
44481;BME280;30184;42.018;23.670;2024-01-16T10:17:14;90670.81;;;6.60;91.86
44481;BME280;30184;42.018;23.670;2024-01-16T10:19:50;90706.19;;;6.91;92.21
44481;BME280;30184;42.018;23.670;2024-01-16T10:22:23;90548.41;;;6.04;92.03
44481;BME280;30184;42.018;23.670;2024-01-16T10:25:11;90700.22;;;6.55;91.37
44481;BME280;30184;42.018;23.670;2024-01-16T10:27:48;90722.22;;;7.24;92.31
44481;BME280;30184;42.018;23.670;2024-01-16T10:30:21;90662.69;;;7.31;91.99
44481;BME280;30184;42.018;23.670;2024-01-16T10:32:51;90704.03;;;7.91;90.96
44481;BME280;30184;42.018;23.670;2024-01-16T10:35:23;90635.13;;;7.74;89.57
44481;BME280;30184;42.018;23.670;2024-01-16T10:37:56;90502.09;;;7.01;86.67
44481;BME280;30184;42.018;23.670;2024-01-16T10:40:28;90713.22;;;8.32;84.71
44481;BME280;30184;42.018;23.670;2024-01-16T10:43:02;90698.97;;;7.80;84.77
44481;BME280;30184;42.018;23.670;2024-01-16T10:45:36;90631.59;;;8.11;84.32
44481;BME280;30184;42.018;23.670;2024-01-16T10:48:09;90618.00;;;8.15;82.09
44481;BME280;30184;42.018;23.670;2024-01-16T10:50:40;90531.31;;;6.77;81.79
44481;BME280;30184;42.018;23.670;2024-01-16T10:53:11;90700.63;;;8.50;81.13
44481;BME280;30184;42.018;23.670;2024-01-16T10:55:50;90557.97;;;7.26;78.91
44481;BME280;30184;42.018;23.670;2024-01-16T10:58:21;90703.19;;;8.54;80.18
44481;BME280;30184;42.018;23.670;2024-01-16T11:00:52;90641.91;;;8.04;79.86
44481;BME280;30184;42.018;23.670;2024-01-16T11:03:26;90643.75;;;7.81;81.28
44481;BME280;30184;42.018;23.670;2024-01-16T11:05:59;90714.03;;;8.29;82.03
44481;BME280;30184;42.018;23.670;2024-01-16T11:08:36;90720.88;;;8.20;82.08
44481;BME280;30184;42.018;23.670;2024-01-16T11:11:08;90731.03;;;8.42;83.13
44481;BME280;30184;42.018;23.670;2024-01-16T11:13:39;90717.81;;;8.44;83.29
44481;BME280;30184;42.018;23.670;2024-01-16T11:16:13;90550.28;;;6.86;82.86
44481;BME280;30184;42.018;23.670;2024-01-16T11:18:46;90779.47;;;8.36;84.02
44481;BME280;30184;42.018;23.670;2024-01-16T11:21:20;90626.63;;;7.12;83.37
44481;BME280;30184;42.018;23.670;2024-01-16T11:23:50;90597.59;;;7.29;83.05
44481;BME280;30184;42.018;23.670;2024-01-16T11:26:27;90571.13;;;6.86;83.02
44481;BME280;30184;42.018;23.670;2024-01-16T11:29:39;90583.13;;;7.48;83.30
44481;BME280;30184;42.018;23.670;2024-01-16T11:32:44;90714.47;;;8.52;82.82
44481;BME280;30184;42.018;23.670;2024-01-16T11:35:33;90712.84;;;8.30;82.07
44481;BME280;30184;42.018;23.670;2024-01-16T11:38:15;90667.97;;;7.72;80.46
44481;BME280;30184;42.018;23.670;2024-01-16T11:40:50;90694.53;;;7.74;80.49
44481;BME280;30184;42.018;23.670;2024-01-16T11:43:36;90742.50;;;8.08;80.84
44481;BME280;30184;42.018;23.670;2024-01-16T11:46:06;90699.81;;;7.39;79.43
44481;BME280;30184;42.018;23.670;2024-01-16T11:48:36;90756.09;;;7.66;79.86
44481;BME280;30184;42.018;23.670;2024-01-16T11:51:22;90731.91;;;7.63;80.98
44481;BME280;30184;42.018;23.670;2024-01-16T11:53:52;90689.41;;;7.25;80.01
44481;BME280;30184;42.018;23.670;2024-01-16T11:56:39;90730.06;;;7.47;79.52
44481;BME280;30184;42.018;23.670;2024-01-16T12:02:21;90650.19;;;6.54;80.90
44481;BME280;30184;42.018;23.670;2024-01-16T12:04:52;90621.53;;;6.31;81.83
44481;BME280;30184;42.018;23.670;2024-01-16T12:07:24;90774.25;;;6.95;81.62
44481;BME280;30184;42.018;23.670;2024-01-16T12:09:59;90625.25;;;5.43;81.29
44481;BME280;30184;42.018;23.670;2024-01-16T12:12:29;90725.03;;;6.33;82.12
44481;BME280;30184;42.018;23.670;2024-01-16T12:15:00;90647.25;;;5.87;81.96
44481;BME280;30184;42.018;23.670;2024-01-16T12:17:33;90744.72;;;6.47;82.17
44481;BME280;30184;42.018;23.670;2024-01-16T12:20:16;90708.50;;;5.67;81.63
44481;BME280;30184;42.018;23.670;2024-01-16T12:22:52;90745.31;;;6.22;82.31
44481;BME280;30184;42.018;23.670;2024-01-16T12:25:23;90764.06;;;6.42;82.68
44481;BME280;30184;42.018;23.670;2024-01-16T12:27:57;90758.94;;;6.47;83.19
44481;BME280;30184;42.018;23.670;2024-01-16T12:30:29;90790.69;;;6.56;82.10
44481;BME280;30184;42.018;23.670;2024-01-16T12:33:05;90703.22;;;6.12;80.82
44481;BME280;30184;42.018;23.670;2024-01-16T12:35:38;90746.66;;;6.46;81.00
44481;BME280;30184;42.018;23.670;2024-01-16T12:38:09;90786.22;;;6.65;80.24
44481;BME280;30184;42.018;23.670;2024-01-16T12:40:41;90781.91;;;6.68;79.64
44481;BME280;30184;42.018;23.670;2024-01-16T12:43:12;90685.41;;;6.02;78.74
44481;BME280;30184;42.018;23.670;2024-01-16T12:45:41;90682.81;;;5.98;79.24
44481;BME280;30184;42.018;23.670;2024-01-16T12:48:22;90711.03;;;6.22;80.09
44481;BME280;30184;42.018;23.670;2024-01-16T12:50:58;90730.94;;;6.28;79.03
44481;BME280;30184;42.018;23.670;2024-01-16T12:53:30;90683.38;;;6.06;78.14
44481;BME280;30184;42.018;23.670;2024-01-16T12:56:02;90803.47;;;6.68;78.70
44481;BME280;30184;42.018;23.670;2024-01-16T12:58:32;90827.22;;;6.73;78.35
44481;BME280;30184;42.018;23.670;2024-01-16T13:01:23;90794.03;;;6.76;78.18
44481;BME280;30184;42.018;23.670;2024-01-16T13:04:03;90756.41;;;6.40;77.41
44481;BME280;30184;42.018;23.670;2024-01-16T13:06:32;90653.75;;;5.73;77.21
44481;BME280;30184;42.018;23.670;2024-01-16T13:09:07;90802.63;;;6.71;77.05
44481;BME280;30184;42.018;23.670;2024-01-16T13:11:53;90820.31;;;6.72;77.45
44481;BME280;30184;42.018;23.670;2024-01-16T13:14:26;90596.78;;;5.10;77.14
44481;BME280;30184;42.018;23.670;2024-01-16T13:17:01;90679.06;;;5.43;75.81
44481;BME280;30184;42.018;23.670;2024-01-16T13:19:37;90833.88;;;6.52;76.48